createdAt,value
2018-01-07T00:00:44.582Z,1.83
2018-01-07T00:03:12.182Z,1.70
2018-01-07T00:05:39.847Z,1.83
2018-01-07T00:08:07.454Z,2.17
2018-01-07T00:10:35.035Z,2.60
2018-01-07T00:13:02.648Z,2.30
2018-01-07T00:15:31.012Z,3.20
2018-01-07T00:17:58.611Z,2.27
2018-01-07T00:20:26.234Z,2.23
2018-01-07T00:22:53.887Z,2.80
2018-01-07T00:25:21.468Z,2.23
2018-01-07T00:27:49.118Z,2.60
2018-01-07T00:30:16.783Z,2.30
2018-01-07T00:32:44.362Z,2.10
2018-01-07T00:35:12.819Z,2.20
2018-01-07T00:37:40.398Z,2.07
2018-01-07T00:40:08.006Z,2.37
2018-01-07T00:42:35.588Z,1.70
2018-01-07T00:45:03.191Z,1.97
2018-01-07T00:47:31.530Z,2.00
2018-01-07T00:49:59.143Z,1.97
2018-01-07T00:52:27.591Z,1.57
2018-01-07T00:54:55.250Z,1.90
2018-01-07T00:57:23.599Z,1.80
2018-01-07T00:59:51.191Z,1.80
2018-01-07T01:02:18.771Z,2.50
2018-01-07T01:04:47.236Z,1.40
2018-01-07T01:07:14.814Z,1.80
2018-01-07T01:09:43.190Z,1.77
2018-01-07T01:12:10.843Z,2.10
2018-01-07T01:14:38.504Z,1.87
2018-01-07T01:17:06.159Z,1.70
2018-01-07T01:19:33.739Z,2.00
2018-01-07T01:22:02.207Z,1.70
2018-01-07T01:24:29.786Z,1.53
2018-01-07T01:26:58.151Z,1.67
2018-01-07T01:29:25.807Z,2.10
2018-01-07T01:31:53.416Z,2.10
2018-01-07T01:34:21.000Z,1.43
2018-01-07T01:36:48.696Z,1.40
2018-01-07T01:39:16.355Z,1.40
2018-01-07T01:41:44.024Z,1.00
2018-01-07T01:44:11.603Z,1.97
2018-01-07T01:46:40.130Z,1.17
2018-01-07T01:49:20.523Z,1.60
2018-01-07T01:51:48.191Z,1.10
2018-01-07T01:54:15.776Z,1.43
2018-01-07T01:56:44.139Z,1.53
2018-01-07T01:59:11.791Z,1.60
2018-01-07T02:01:39.456Z,1.23
2018-01-07T02:04:07.031Z,1.30
2018-01-07T02:06:34.612Z,1.70
2018-01-07T02:09:02.235Z,1.70
2018-01-07T02:11:29.902Z,1.70
2018-01-07T02:13:57.502Z,1.30
2018-01-07T02:16:25.080Z,1.97
2018-01-07T02:18:52.782Z,1.30
2018-01-07T02:21:20.362Z,1.17
2018-01-07T02:23:48.008Z,1.27
2018-01-07T02:26:15.667Z,1.13
2018-01-07T02:28:43.339Z,1.10
2018-01-07T02:31:10.929Z,1.80
2018-01-07T02:33:38.564Z,1.00
2018-01-07T02:36:06.148Z,1.10
2018-01-07T02:38:34.600Z,1.27
2018-01-07T02:41:02.263Z,1.20
2018-01-07T02:43:29.931Z,1.50
2018-01-07T02:45:57.536Z,1.40
2018-01-07T02:48:25.155Z,0.97
2018-01-07T02:50:52.752Z,0.93
2018-01-07T02:53:20.337Z,1.10
2018-01-07T02:55:48.049Z,1.60
2018-01-07T02:58:15.695Z,1.30
2018-01-07T03:00:43.363Z,1.00
2018-01-07T03:03:11.023Z,1.30
2018-01-07T03:05:38.696Z,0.93
2018-01-07T03:08:07.171Z,1.20
2018-01-07T03:10:34.768Z,1.17
2018-01-07T03:13:02.348Z,0.93
2018-01-07T03:15:29.951Z,1.10
2018-01-07T03:17:57.540Z,0.70
2018-01-07T03:20:25.995Z,0.70
2018-01-07T03:22:53.591Z,0.67
2018-01-07T03:25:22.751Z,1.07
2018-01-07T03:27:50.423Z,1.00
2018-01-07T03:30:18.774Z,0.90
2018-01-07T03:32:46.378Z,1.03
2018-01-07T03:35:14.723Z,1.10
2018-01-07T03:37:42.398Z,0.83
2018-01-07T03:40:10.064Z,0.97
2018-01-07T03:42:37.727Z,0.93
2018-01-07T03:45:05.376Z,0.80
2018-01-07T03:47:33.056Z,0.90
2018-01-07T03:50:00.649Z,0.77
2018-01-07T03:52:29.025Z,0.63
2018-01-07T03:54:57.367Z,0.70
2018-01-07T03:57:25.031Z,0.70
2018-01-07T03:59:52.617Z,0.70
2018-01-07T04:02:20.980Z,0.70
2018-01-07T04:04:48.638Z,1.40
2018-01-07T04:07:16.299Z,0.80
2018-01-07T04:09:43.899Z,1.03
2018-01-07T04:12:11.527Z,0.87
2018-01-07T04:14:39.136Z,0.87
2018-01-07T04:17:06.720Z,1.00
2018-01-07T04:19:34.407Z,1.00
2018-01-07T04:22:02.085Z,0.73
2018-01-07T04:24:29.802Z,1.10
2018-01-07T04:26:57.403Z,0.90
2018-01-07T04:29:24.998Z,0.77
2018-01-07T04:31:52.579Z,0.63
2018-01-07T04:34:20.175Z,1.00
2018-01-07T04:36:47.751Z,1.00
2018-01-07T04:39:15.406Z,1.27
2018-01-07T04:41:43.003Z,1.00
2018-01-07T04:44:10.583Z,0.80
2018-01-07T04:46:38.187Z,1.10
2018-01-07T04:49:05.861Z,0.80
2018-01-07T04:51:33.511Z,0.90
2018-01-07T04:54:01.183Z,1.00
2018-01-07T04:56:28.781Z,0.70
2018-01-07T04:58:56.376Z,0.87
2018-01-07T05:01:23.975Z,1.20
2018-01-07T05:03:51.560Z,0.80
2018-01-07T05:06:19.188Z,0.70
2018-01-07T05:08:46.852Z,0.87
2018-01-07T05:11:14.506Z,0.80
2018-01-07T05:13:42.083Z,0.70
2018-01-07T05:16:09.671Z,1.17
2018-01-07T05:18:37.306Z,1.07
2018-01-07T05:21:04.892Z,1.10
2018-01-07T05:23:32.501Z,0.90
2018-01-07T05:26:00.087Z,1.27
2018-01-07T05:28:27.748Z,1.50
2018-01-07T05:30:55.327Z,0.90
2018-01-07T05:33:23.787Z,0.90
2018-01-07T05:35:51.366Z,1.10
2018-01-07T05:38:19.744Z,0.77
2018-01-07T05:40:48.203Z,1.23
2018-01-07T05:43:15.802Z,1.20
2018-01-07T05:45:43.413Z,0.70
2018-01-07T05:48:11.059Z,1.07
2018-01-07T05:50:38.752Z,1.00
2018-01-07T05:53:06.428Z,0.83
2018-01-07T05:55:34.839Z,0.80
2018-01-07T05:58:02.461Z,1.47
2018-01-07T06:00:30.081Z,1.10
2018-01-07T06:02:57.782Z,0.70
2018-01-07T06:05:25.447Z,1.00
2018-01-07T06:07:53.832Z,1.12
2018-01-07T06:10:21.426Z,0.87
2018-01-07T06:12:49.027Z,1.05
2018-01-07T06:15:16.719Z,0.85
2018-01-07T06:17:45.199Z,1.00
2018-01-07T06:20:13.675Z,0.70
2018-01-07T06:22:41.348Z,0.88
2018-01-07T06:25:09.831Z,0.80
2018-01-07T06:27:38.307Z,0.93
2018-01-07T06:30:06.787Z,1.10
2018-01-07T06:32:35.171Z,0.95
2018-01-07T06:35:03.535Z,1.00
2018-01-07T06:37:31.165Z,0.75
2018-01-07T06:39:59.195Z,0.82
2018-01-07T06:42:26.823Z,0.80
2018-01-07T06:44:54.503Z,0.70
2018-01-07T06:47:22.167Z,1.05
2018-01-07T06:49:50.541Z,0.88
2018-01-07T06:52:19.035Z,1.10
2018-01-07T06:54:47.520Z,0.93
2018-01-07T06:57:15.995Z,0.75
2018-01-07T06:59:44.362Z,0.80
2018-01-07T07:02:12.035Z,0.75
2018-01-07T07:04:39.703Z,1.15
2018-01-07T07:07:08.391Z,0.77
2018-01-07T07:09:36.767Z,0.60
2018-01-07T07:12:05.154Z,0.80
2018-01-07T07:14:33.632Z,0.82
2018-01-07T07:17:01.295Z,0.60
2018-01-07T07:19:29.772Z,1.00
2018-01-07T07:21:58.144Z,0.70
2018-01-07T07:24:25.815Z,1.00
2018-01-07T07:26:54.208Z,0.90
2018-01-07T07:29:22.594Z,0.90
2018-01-07T07:31:50.205Z,0.88
2018-01-07T07:34:17.904Z,0.90
2018-01-07T07:36:46.271Z,0.50
2018-01-07T07:39:13.879Z,0.90
2018-01-07T07:41:41.479Z,1.10
2018-01-07T07:44:09.166Z,0.97
2018-01-07T07:46:36.747Z,0.67
2018-01-07T07:49:05.133Z,0.90
2018-01-07T07:51:33.475Z,0.80
2018-01-07T07:54:01.435Z,1.27
2018-01-07T07:56:29.119Z,0.80
2018-01-07T07:58:56.702Z,0.83
2018-01-07T08:01:25.167Z,0.70
2018-01-07T08:03:52.827Z,0.67
2018-01-07T08:06:20.496Z,1.03
2018-01-07T08:08:48.155Z,1.03
2018-01-07T08:11:15.755Z,0.83
2018-01-07T08:13:43.375Z,1.23
2018-01-07T08:16:11.749Z,0.80
2018-01-07T08:18:39.423Z,0.80
2018-01-07T08:21:07.080Z,1.30
2018-01-07T08:23:34.668Z,1.07
2018-01-07T08:26:03.041Z,1.00
2018-01-07T08:28:31.403Z,0.60
2018-01-07T08:30:59.013Z,1.00
2018-01-07T08:33:26.591Z,0.90
2018-01-07T08:35:54.283Z,0.90
2018-01-07T08:38:21.872Z,0.90
2018-01-07T08:40:50.235Z,1.10
2018-01-07T08:43:17.896Z,0.80
2018-01-07T08:45:45.559Z,0.90
2018-01-07T08:48:13.149Z,1.10
2018-01-07T08:50:41.527Z,1.00
2018-01-07T08:53:09.980Z,1.03
2018-01-07T08:55:37.559Z,3.00
2018-01-07T08:58:05.919Z,0.90
2018-01-07T09:00:33.584Z,0.80
2018-01-07T09:03:01.248Z,1.17
2018-01-07T09:05:28.831Z,1.33
2018-01-07T09:07:57.199Z,0.93
2018-01-07T09:10:25.547Z,0.93
2018-01-07T09:12:53.227Z,1.10
2018-01-07T09:15:20.887Z,1.13
2018-01-07T09:17:48.547Z,1.50
2018-01-07T09:20:16.124Z,1.90
2018-01-07T09:22:43.727Z,1.33
2018-01-07T09:25:11.307Z,1.17
2018-01-07T09:27:38.995Z,0.80
2018-01-07T09:30:06.575Z,0.87
2018-01-07T09:32:34.219Z,1.13
2018-01-07T09:35:03.303Z,1.50
2018-01-07T09:37:30.907Z,1.40
2018-01-07T09:39:59.255Z,1.60
2018-01-07T09:42:26.919Z,2.47
2018-01-07T09:44:54.498Z,2.07
2018-01-07T09:47:22.959Z,1.30
2018-01-07T09:49:50.540Z,1.70
2018-01-07T09:52:19.012Z,0.93
2018-01-07T09:54:46.600Z,1.40
2018-01-07T09:57:15.051Z,2.13
2018-01-07T09:59:42.631Z,1.60
2018-01-07T10:02:11.096Z,2.40
2018-01-07T10:04:38.756Z,2.20
2018-01-07T10:07:06.364Z,2.30
2018-01-07T10:09:33.980Z,1.50
2018-01-07T10:12:01.643Z,1.43
2018-01-07T10:14:29.271Z,1.30
2018-01-07T10:16:56.863Z,1.50
2018-01-07T10:19:24.527Z,1.10
2018-01-07T10:21:52.194Z,0.90
2018-01-07T10:24:19.795Z,1.70
2018-01-07T10:26:47.410Z,1.43
2018-01-07T10:29:15.074Z,1.40
2018-01-07T10:31:42.735Z,1.40
2018-01-07T10:34:10.412Z,1.13
2018-01-07T10:36:37.991Z,1.40
2018-01-07T10:39:06.442Z,1.10
2018-01-07T10:41:34.120Z,1.40
2018-01-07T10:44:01.771Z,1.17
2018-01-07T10:46:29.436Z,1.30
2018-01-07T10:48:57.053Z,1.67
2018-01-07T10:51:24.636Z,1.10
2018-01-07T10:53:52.323Z,1.40
2018-01-07T10:56:19.984Z,1.60
2018-01-07T10:58:47.573Z,1.70
2018-01-07T11:01:21.611Z,1.57
2018-01-07T11:03:49.203Z,1.40
2018-01-07T11:06:16.888Z,0.90
2018-01-07T11:08:44.547Z,1.47
2018-01-07T11:11:13.023Z,1.63
2018-01-07T11:13:40.603Z,1.13
2018-01-07T11:16:08.987Z,0.83
2018-01-07T11:18:37.352Z,1.50
2018-01-07T11:21:04.952Z,1.37
2018-01-07T11:23:32.540Z,1.20
2018-01-07T11:26:00.232Z,0.83
2018-01-07T11:28:27.811Z,2.50
2018-01-07T11:30:56.180Z,1.10
2018-01-07T11:33:23.767Z,1.40
2018-01-07T11:35:52.136Z,1.30
2018-01-07T11:38:20.496Z,2.53
2018-01-07T11:40:48.081Z,1.40
2018-01-07T11:43:16.540Z,1.60
2018-01-07T11:45:44.195Z,1.37
2018-01-07T11:48:11.800Z,1.23
2018-01-07T11:50:39.375Z,1.13
2018-01-07T11:53:06.979Z,1.10
2018-01-07T11:55:34.650Z,1.30
2018-01-07T11:58:02.252Z,1.10
2018-01-07T12:00:29.837Z,0.80
2018-01-07T12:02:57.536Z,1.00
2018-01-07T12:05:25.191Z,1.40
2018-01-07T12:07:52.859Z,1.20
2018-01-07T12:10:20.445Z,1.20
2018-01-07T12:12:48.905Z,1.00
2018-01-07T12:15:16.486Z,1.17
2018-01-07T12:17:44.939Z,1.20
2018-01-07T12:20:12.520Z,1.10
2018-01-07T12:22:40.863Z,1.03
2018-01-07T12:25:08.480Z,1.07
2018-01-07T12:27:36.116Z,1.00
2018-01-07T12:30:03.771Z,1.30
2018-01-07T12:32:32.114Z,1.37
2018-01-07T12:34:59.716Z,1.47
2018-01-07T12:37:27.371Z,1.20
2018-01-07T12:39:55.040Z,1.63
2018-01-07T12:42:22.694Z,1.53
2018-01-07T12:44:50.363Z,1.40
2018-01-07T12:47:18.031Z,1.37
2018-01-07T12:49:45.639Z,0.87
2018-01-07T12:52:13.218Z,1.37
2018-01-07T12:54:40.816Z,1.13
2018-01-07T12:57:08.417Z,1.17
2018-01-07T12:59:36.004Z,1.20
2018-01-07T13:02:03.695Z,1.70
2018-01-07T13:04:31.361Z,1.43
2018-01-07T13:06:58.964Z,1.93
2018-01-07T13:09:26.584Z,2.00
2018-01-07T13:11:54.248Z,1.87
2018-01-07T13:14:21.903Z,1.70
2018-01-07T13:16:49.508Z,1.37
2018-01-07T13:19:17.097Z,1.67
2018-01-07T13:21:45.699Z,1.40
2018-01-07T13:24:13.279Z,1.50
2018-01-07T13:26:40.883Z,1.50
2018-01-07T13:29:08.461Z,1.30
2018-01-07T13:31:36.067Z,1.37
2018-01-07T13:34:04.434Z,1.10
2018-01-07T13:36:32.011Z,1.20
2018-01-07T13:38:59.616Z,1.07
2018-01-07T13:41:27.228Z,1.17
2018-01-07T13:43:54.888Z,0.90
2018-01-07T13:46:22.471Z,0.70
2018-01-07T13:48:50.836Z,1.60
2018-01-07T13:51:18.426Z,0.80
2018-01-07T13:53:46.037Z,1.50
2018-01-07T13:56:13.631Z,1.00
2018-01-07T13:58:41.999Z,1.13
2018-01-07T14:01:09.651Z,1.07
2018-01-07T14:03:38.763Z,1.17
2018-01-07T14:06:06.348Z,1.20
2018-01-07T14:08:33.978Z,1.30
2018-01-07T14:11:01.640Z,1.20
2018-01-07T14:13:29.218Z,0.70
2018-01-07T14:15:57.591Z,1.03
2018-01-07T14:18:25.235Z,2.87
2018-01-07T14:20:52.898Z,2.60
2018-01-07T14:23:20.471Z,2.67
2018-01-07T14:25:48.127Z,1.90
2018-01-07T14:28:15.788Z,0.80
2018-01-07T14:30:43.459Z,0.90
2018-01-07T14:33:11.100Z,0.70
2018-01-07T14:35:38.775Z,0.83
2018-01-07T14:38:06.444Z,0.70
2018-01-07T14:40:34.108Z,0.50
2018-01-07T14:43:01.734Z,0.73
2018-01-07T14:45:29.335Z,0.97
2018-01-07T14:47:56.997Z,2.27
2018-01-07T14:50:24.613Z,2.93
2018-01-07T14:52:52.211Z,3.47
2018-01-07T14:55:19.880Z,3.07
2018-01-07T14:57:47.535Z,3.10
2018-01-07T15:00:15.883Z,2.63
2018-01-07T15:02:43.487Z,1.57
2018-01-07T15:05:11.147Z,1.87
2018-01-07T15:07:38.804Z,0.70
2018-01-07T15:10:06.467Z,0.97
2018-01-07T15:12:34.137Z,0.80
2018-01-07T15:15:01.715Z,0.60
2018-01-07T15:17:30.139Z,0.93
2018-01-07T15:19:57.715Z,0.67
2018-01-07T15:22:25.331Z,0.60
2018-01-07T15:24:52.911Z,0.50
2018-01-07T15:27:20.623Z,0.57
2018-01-07T15:29:49.013Z,0.50
2018-01-07T15:32:16.672Z,0.50
2018-01-07T15:34:45.152Z,0.77
2018-01-07T15:37:13.519Z,1.08
2018-01-07T15:39:41.197Z,0.98
2018-01-07T15:42:09.561Z,1.00
2018-01-07T15:44:37.162Z,0.90
2018-01-07T15:47:04.801Z,0.70
2018-01-07T15:49:33.198Z,0.45
2018-01-07T15:52:00.799Z,0.70
2018-01-07T15:54:28.496Z,0.77
2018-01-07T15:56:56.988Z,0.73
2018-01-07T15:59:25.375Z,0.75
2018-01-07T16:01:53.019Z,0.73
2018-01-07T16:04:21.421Z,0.80
2018-01-07T16:06:49.072Z,1.25
2018-01-07T16:09:17.449Z,1.60
2018-01-07T16:11:45.923Z,4.30
2018-01-07T16:14:14.298Z,7.15
2018-01-07T16:16:42.708Z,13.13
2018-01-07T16:19:10.322Z,24.08
2018-01-07T16:21:38.019Z,16.45
2018-01-07T16:24:05.648Z,11.95
2018-01-07T16:26:33.292Z,11.10
2018-01-07T16:29:00.917Z,16.12
2018-01-07T16:31:28.667Z,14.60
2018-01-07T16:33:57.046Z,12.63
2018-01-07T16:36:25.497Z,9.18
2018-01-07T16:38:53.191Z,8.02
2018-01-07T16:41:21.677Z,5.60
2018-01-07T16:43:50.155Z,11.50
2018-01-07T16:46:18.538Z,11.48
2018-01-07T16:48:46.950Z,16.15
2018-01-07T16:51:14.563Z,11.32
2018-01-07T16:53:42.198Z,10.20
2018-01-07T16:56:09.808Z,11.82
2018-01-07T16:58:38.212Z,8.38
2018-01-07T17:01:05.824Z,9.20
2018-01-07T17:03:33.455Z,10.30
2018-01-07T17:06:01.059Z,9.52
2018-01-07T17:08:29.556Z,6.95
2018-01-07T17:10:57.934Z,7.68
2018-01-07T17:13:26.412Z,6.57
2018-01-07T17:15:54.895Z,9.95
2018-01-07T17:18:23.379Z,8.07
2018-01-07T17:20:51.864Z,7.95
2018-01-07T17:23:20.235Z,8.30
2018-01-07T17:25:48.719Z,9.15
2018-01-07T17:28:17.091Z,5.70
2018-01-07T17:30:45.483Z,5.28
2018-01-07T17:33:13.861Z,6.00
2018-01-07T17:35:42.259Z,6.80
2018-01-07T17:38:09.872Z,12.70
2018-01-07T17:40:37.504Z,9.60
2018-01-07T17:43:05.115Z,19.05
2018-01-07T17:45:32.787Z,9.77
2018-01-07T17:48:01.272Z,6.53
2018-01-07T17:50:29.752Z,10.80
2018-01-07T17:52:58.248Z,11.10
2018-01-07T17:55:25.900Z,7.37
2018-01-07T17:57:54.396Z,10.00
2018-01-07T18:00:22.036Z,17.12
2018-01-07T18:02:50.407Z,19.08
2018-01-07T18:05:18.072Z,12.35
2018-01-07T18:07:45.709Z,11.88
2018-01-07T18:10:13.416Z,25.55
2018-01-07T18:12:41.823Z,23.77
2018-01-07T18:15:09.460Z,20.02
2018-01-07T18:17:37.855Z,14.87
2018-01-07T18:20:05.475Z,17.50
2018-01-07T18:22:33.103Z,16.95
2018-01-07T18:25:00.823Z,13.45
2018-01-07T18:27:29.233Z,11.55
2018-01-07T18:29:56.872Z,10.45
2018-01-07T18:32:25.267Z,10.40
2018-01-07T18:34:52.888Z,11.93
2018-01-07T18:37:20.505Z,10.80
2018-01-07T18:39:48.136Z,10.38
2018-01-07T18:42:16.507Z,11.15
2018-01-07T18:44:44.908Z,10.80
2018-01-07T18:47:12.551Z,13.60
2018-01-07T18:49:40.956Z,15.15
2018-01-07T18:52:08.567Z,11.45
2018-01-07T18:54:36.268Z,12.15
2018-01-07T18:57:03.882Z,12.77
2018-01-07T18:59:31.499Z,14.27
2018-01-07T19:01:59.258Z,14.25
2018-01-07T19:04:26.911Z,13.70
2018-01-07T19:06:55.371Z,13.70
2018-01-07T19:09:23.064Z,13.77
2018-01-07T19:11:50.783Z,21.45
2018-01-07T19:14:18.404Z,21.80
2018-01-07T19:16:46.039Z,18.10
2018-01-07T19:19:14.523Z,13.20
2018-01-07T19:21:42.919Z,16.87
2018-01-07T19:24:10.567Z,17.73
2018-01-07T19:26:39.047Z,15.23
2018-01-07T19:29:07.541Z,21.08
2018-01-07T19:31:35.152Z,29.35
2018-01-07T19:34:02.859Z,24.75
2018-01-07T19:36:31.339Z,20.48
2018-01-07T19:38:59.742Z,16.85
2018-01-07T19:41:27.352Z,7.72
2018-01-07T19:43:54.996Z,8.10
2018-01-07T19:46:22.617Z,6.53
2018-01-07T19:48:50.251Z,7.55
2018-01-07T19:51:17.876Z,6.85
2018-01-07T19:53:45.484Z,7.13
2018-01-07T19:56:13.863Z,7.60
2018-01-07T19:58:42.250Z,7.15
2018-01-07T20:01:11.505Z,5.90
2018-01-07T20:03:39.111Z,5.60
2018-01-07T20:06:07.604Z,6.25
2018-01-07T20:08:36.080Z,5.95
2018-01-07T20:11:04.482Z,6.40
2018-01-07T20:13:32.091Z,7.68
2018-01-07T20:15:59.723Z,9.18
2018-01-07T20:18:27.347Z,11.95
2018-01-07T20:20:55.826Z,11.88
2018-01-07T20:23:24.207Z,10.25
2018-01-07T20:25:52.619Z,11.90
2018-01-07T20:28:20.257Z,10.80
2018-01-07T20:30:47.931Z,11.27
2018-01-07T20:33:15.639Z,8.75
2018-01-07T20:35:43.266Z,10.57
2018-01-07T20:38:10.999Z,10.32
2018-01-07T20:40:39.475Z,8.60
2018-01-07T20:43:07.879Z,10.13
2018-01-07T20:45:35.526Z,10.85
2018-01-07T20:48:03.933Z,12.95
2018-01-07T20:50:31.581Z,14.00
2018-01-07T20:52:59.340Z,11.60
2018-01-07T20:55:27.924Z,10.25
2018-01-07T20:57:56.318Z,9.65
2018-01-07T21:00:23.936Z,11.70
2018-01-07T21:02:51.636Z,11.77
2018-01-07T21:05:19.292Z,11.45
2018-01-07T21:07:47.676Z,9.73
2018-01-07T21:10:16.083Z,10.38
2018-01-07T21:12:43.707Z,11.10
2018-01-07T21:15:12.191Z,10.65
2018-01-07T21:17:40.576Z,17.02
2018-01-07T21:20:09.060Z,22.55
2018-01-07T21:22:37.439Z,18.83
2018-01-07T21:25:05.852Z,14.25
2018-01-07T21:27:33.466Z,13.30
2018-01-07T21:30:01.871Z,12.65
2018-01-07T21:32:29.514Z,12.35
2018-01-07T21:34:58.000Z,14.13
2018-01-07T21:37:26.383Z,15.60
2018-01-07T21:39:54.763Z,15.40
2018-01-07T21:42:23.171Z,12.43
2018-01-07T21:44:50.783Z,11.32
2018-01-07T21:47:18.473Z,15.88
2018-01-07T21:49:46.947Z,14.57
2018-01-07T21:52:15.360Z,14.27
2018-01-07T21:54:42.992Z,14.23
2018-01-07T21:57:11.395Z,13.75
2018-01-07T21:59:50.981Z,14.68
2018-01-07T22:02:27.404Z,13.90
2018-01-07T22:04:55.867Z,13.68
2018-01-07T22:07:24.284Z,13.07
2018-01-07T22:09:51.896Z,18.73
2018-01-07T22:12:20.274Z,18.60
2018-01-07T22:14:47.954Z,18.58
2018-01-07T22:17:16.339Z,17.58
2018-01-07T22:19:44.748Z,16.85
2018-01-07T22:22:12.364Z,12.73
2018-01-07T22:24:40.766Z,12.07
2018-01-07T22:27:08.383Z,14.00
2018-01-07T22:29:36.076Z,12.55
2018-01-07T22:32:04.459Z,14.10
2018-01-07T22:34:32.839Z,29.00
2018-01-07T22:37:01.324Z,30.83
2018-01-07T22:39:29.712Z,30.48
2018-01-07T22:41:57.434Z,17.80
2018-01-07T22:44:25.052Z,15.75
2018-01-07T22:46:52.796Z,12.73
2018-01-07T22:49:20.420Z,12.95
2018-01-07T22:51:48.064Z,22.75
2018-01-07T22:54:15.680Z,20.70
2018-01-07T22:56:44.160Z,21.73
2018-01-07T22:59:12.639Z,25.45
2018-01-07T23:01:41.024Z,17.90
2018-01-07T23:04:09.504Z,18.55
2018-01-07T23:06:37.988Z,12.50
2018-01-07T23:09:06.405Z,10.88
2018-01-07T23:11:34.127Z,14.05
2018-01-07T23:14:02.532Z,11.80
2018-01-07T23:16:30.143Z,12.40
2018-01-07T23:18:57.775Z,11.32
2018-01-07T23:21:25.495Z,12.80
2018-01-07T23:23:53.899Z,11.20
2018-01-07T23:26:21.520Z,10.15
2018-01-07T23:28:49.203Z,8.93
2018-01-07T23:31:17.596Z,7.60
2018-01-07T23:33:45.207Z,7.50
2018-01-07T23:36:12.839Z,7.30
2018-01-07T23:38:40.476Z,7.07
2018-01-07T23:41:08.131Z,7.47
2018-01-07T23:43:36.512Z,8.95
2018-01-07T23:46:04.915Z,10.10
2018-01-07T23:48:32.536Z,10.70
2018-01-07T23:51:00.215Z,11.18
2018-01-07T23:53:28.619Z,10.40
2018-01-07T23:55:56.267Z,9.93
2018-01-07T23:58:24.752Z,8.48
